Time;durP1;ratioP1;P1;durP2;ratioP2;P2;SDS_P1;SDS_P2;PMS_P1;PMS_P2;Temp;Humidity;BMP_temperature;BMP_pressure;BME280_temperature;BME280_humidity;BME280_pressure;Samples;Min_cycle;Max_cycle;Signal;HPM_P1;HPM_P2
2022/04/26 04:00:48;;;;;;;28.10;12.00;;;;;;;;;;5827879;22;20559;-76
2022/04/26 04:03:14;;;;;;;17.13;8.83;;;;;;;;;;4994990;28;20420;-76
2022/04/26 04:05:42;;;;;;;17.80;11.53;;;;;;;;;;4977622;28;20417;-73
2022/04/26 04:08:07;;;;;;;15.37;10.93;;;0.80;96.30;;;;;;4977110;28;20189;-72
2022/04/26 04:10:33;;;;;;;106.60;12.90;;;0.80;96.30;;;;;;4994995;28;20437;-73
2022/04/26 04:12:58;;;;;;;255.83;12.00;;;0.90;96.30;;;;;;4995522;28;20166;-74
2022/04/26 04:15:24;;;;;;;335.43;12.70;;;;;;;;;;4981451;28;20644;-76
2022/04/26 04:17:50;;;;;;;278.43;11.67;;;0.90;96.30;;;;;;4994169;28;20209;-76
2022/04/26 04:20:15;;;;;;;515.67;14.97;;;0.90;96.30;;;;;;4994816;28;20265;-75
2022/04/26 04:22:41;;;;;;;592.63;16.10;;;1.00;96.30;;;;;;4994534;28;20555;-76
2022/04/26 04:25:07;;;;;;;364.40;11.97;;;1.00;96.30;;;;;;4994546;28;20177;-76
2022/04/26 04:27:33;;;;;;;353.17;15.00;;;;;;;;;;4976715;28;20213;-76
2022/04/26 04:30:02;;;;;;;346.03;15.33;;;1.00;96.30;;;;;;4994670;28;20185;-77
2022/04/26 04:32:32;;;;;;;504.80;15.27;;;1.00;96.30;;;;;;4994475;28;20259;-77
2022/04/26 04:34:57;;;;;;;256.50;10.30;;;1.00;96.30;;;;;;4977085;28;20429;-75
2022/04/26 04:37:23;;;;;;;254.57;13.67;;;;;;;;;;4976708;28;20459;-77
2022/04/26 04:39:49;;;;;;;282.83;15.97;;;1.10;96.30;;;;;;4976679;28;20209;-77
2022/04/26 04:42:15;;;;;;;218.90;12.30;;;;;;;;;;4976769;28;20201;-77
2022/04/26 04:44:41;;;;;;;95.47;11.67;;;1.30;96.30;;;;;;4976394;28;20511;-77
2022/04/26 04:47:07;;;;;;;196.50;10.60;;;1.70;96.30;;;;;;4978382;28;20433;-78
2022/04/26 04:49:32;;;;;;;83.33;9.40;;;2.00;96.30;;;;;;4978184;28;20166;-76
2022/04/26 04:51:58;;;;;;;19.00;12.10;;;2.20;96.30;;;;;;4988921;28;20220;-74
2022/04/26 04:54:23;;;;;;;16.00;13.40;;;2.50;96.30;;;;;;4989192;28;20236;-76
2022/04/26 04:56:49;;;;;;;12.40;9.70;;;2.70;96.30;;;;;;4979451;28;20206;-76
2022/04/26 04:59:16;;;;;;;11.47;8.77;;;2.70;96.30;;;;;;4974016;28;20302;-75
2022/04/26 05:01:42;;;;;;;11.83;10.00;;;;;;;;;;4974299;28;20213;-77
2022/04/26 05:04:08;;;;;;;11.30;9.17;;;2.60;96.30;;;;;;4975059;28;20406;-78
2022/04/26 05:06:33;;;;;;;11.07;8.80;;;2.70;96.30;;;;;;4968388;28;20940;-76
2022/04/26 05:08:59;;;;;;;11.83;9.67;;;2.70;96.30;;;;;;4993103;28;20517;-76
2022/04/26 05:11:25;;;;;;;10.63;8.77;;;;;;;;;;4983637;28;20533;-76
2022/04/26 05:13:51;;;;;;;14.00;9.87;;;;;;;;;;4967824;28;20186;-78
2022/04/26 05:16:17;;;;;;;15.20;10.13;;;;;;;;;;4973789;28;20178;-77
2022/04/26 05:18:42;;;;;;;11.50;9.70;;;3.10;96.30;;;;;;4972024;28;20466;-76
2022/04/26 05:21:09;;;;;;;13.50;9.93;;;3.30;96.30;;;;;;4972618;28;21053;-76
2022/04/26 05:26:19;;;;;;;10.63;9.30;;;;;;;;;;4973093;28;20504;-75
2022/04/26 05:28:45;;;;;;;13.00;10.10;;;;;;;;;;4972047;28;20919;-74
2022/04/26 05:31:11;;;;;;;13.93;11.07;;;;;;;;;;4955469;28;20806;-76
2022/04/26 05:33:37;;;;;;;13.73;10.90;;;6.80;96.30;;;;;;4955360;28;20418;-78
2022/04/26 05:36:03;;;;;;;12.93;11.20;;;8.00;96.30;;;;;;4956534;28;20181;-78
2022/04/26 05:38:28;;;;;;;11.80;9.60;;;9.40;96.30;;;;;;4973740;28;20591;-77
2022/04/26 05:40:54;;;;;;;11.90;9.87;;;9.90;96.30;;;;;;4960526;28;20446;-77
2022/04/26 05:43:20;;;;;;;10.07;8.23;;;10.70;96.30;;;;;;4986537;28;20184;-77
2022/04/26 05:45:46;;;;;;;11.57;9.13;;;11.00;96.30;;;;;;4993863;28;20185;-77
2022/04/26 05:48:13;;;;;;;10.90;8.67;;;;;;;;;;4993511;28;20479;-79
2022/04/26 05:50:39;;;;;;;10.13;8.80;;;12.60;96.30;;;;;;4988012;28;20205;-80
2022/04/26 05:53:05;;;;;;;9.87;8.87;;;12.80;96.30;;;;;;4980389;28;20441;-78
2022/04/26 05:55:30;;;;;;;8.63;7.73;;;12.00;96.30;;;;;;4975123;28;20441;-77
2022/04/26 05:57:56;;;;;;;9.23;8.30;;;12.30;96.30;;;;;;4978744;28;20237;-78
2022/04/26 06:00:22;;;;;;;10.37;8.50;;;13.00;96.30;;;;;;4965394;28;20662;-78
2022/04/26 06:02:51;;;;;;;8.50;7.70;;;13.10;96.30;;;;;;4971315;28;20186;-78
2022/04/26 06:05:17;;;;;;;8.50;7.70;;;13.50;96.30;;;;;;4994344;28;20200;-77
2022/04/26 06:07:42;;;;;;;9.90;8.90;;;13.60;96.30;;;;;;4975833;28;20979;-77
2022/04/26 06:10:10;;;;;;;9.53;8.47;;;14.00;96.30;;;;;;4993838;28;20192;-77
2022/04/26 06:12:36;;;;;;;8.50;7.67;;;14.60;96.30;;;;;;4993650;28;20184;-77
2022/04/26 06:15:01;;;;;;;10.97;8.47;;;14.50;96.30;;;;;;4993496;28;20413;-78
2022/04/26 06:17:27;;;;;;;10.80;9.57;;;15.40;96.30;;;;;;4966655;28;20201;-76
2022/04/26 06:19:52;;;;;;;9.53;8.63;;;16.00;96.30;;;;;;4978650;28;20178;-76
2022/04/26 06:22:18;;;;;;;8.60;7.57;;;15.30;96.30;;;;;;4974160;28;20198;-77
2022/04/26 06:24:44;;;;;;;9.03;8.07;;;;;;;;;;4956373;28;20204;-77
2022/04/26 06:27:10;;;;;;;9.60;8.27;;;16.00;95.30;;;;;;4973946;28;20174;-76
2022/04/26 06:29:36;;;;;;;9.70;8.63;;;16.50;93.50;;;;;;4973361;28;20421;-77
2022/04/26 06:32:02;;;;;;;8.97;8.07;;;15.70;95.80;;;;;;4973222;28;20483;-76
2022/04/26 06:34:27;;;;;;;7.93;7.23;;;16.10;95.50;;;;;;4956426;28;20174;-77
2022/04/26 06:36:53;;;;;;;14.10;9.17;;;;;;;;;;4956490;28;20420;-77
2022/04/26 06:39:19;;;;;;;9.67;8.77;;;16.90;92.40;;;;;;4973325;28;20177;-77
2022/04/26 06:41:45;;;;;;;17.30;8.87;;;17.00;91.90;;;;;;4973899;28;20202;-77
2022/04/26 06:44:10;;;;;;;9.33;8.40;;;;;;;;;;4974039;28;20171;-77
2022/04/26 06:46:36;;;;;;;9.53;8.43;;;16.90;92.70;;;;;;4973932;28;20170;-76
2022/04/26 06:49:05;;;;;;;11.87;8.03;;;17.90;91.10;;;;;;4973449;28;20197;-77
2022/04/26 06:51:37;;;;;;;8.13;7.33;;;18.20;89.00;;;;;;4973852;28;20218;-77
2022/04/26 06:54:03;;;;;;;9.80;8.60;;;19.10;86.30;;;;;;4973810;28;20932;-77
2022/04/26 06:56:30;;;;;;;8.90;8.10;;;;;;;;;;4960231;28;20429;-78
2022/04/26 06:58:55;;;;;;;9.33;8.33;;;18.40;86.50;;;;;;4990562;28;20507;-74
2022/04/26 07:01:21;;;;;;;9.60;8.60;;;18.20;89.20;;;;;;4982066;28;20503;-78
2022/04/26 07:03:46;;;;;;;9.50;8.60;;;18.40;88.50;;;;;;4985080;28;20255;-77
2022/04/26 07:06:12;;;;;;;10.47;9.10;;;18.10;90.10;;;;;;4978261;28;20174;-78
2022/04/26 07:08:37;;;;;;;9.23;8.33;;;18.60;87.90;;;;;;4987699;28;20216;-77
2022/04/26 07:11:03;;;;;;;10.40;9.30;;;18.50;88.10;;;;;;4995473;28;20201;-77
2022/04/26 07:13:28;;;;;;;11.03;9.80;;;18.00;88.60;;;;;;4995773;28;20181;-78
2022/04/26 07:15:54;;;;;;;11.20;8.93;;;18.20;89.80;;;;;;4996289;28;20556;-78
2022/04/26 07:18:19;;;;;;;9.23;8.30;;;18.20;89.30;;;;;;4978048;28;20217;-78
2022/04/26 07:20:45;;;;;;;10.30;9.40;;;17.90;89.90;;;;;;4996177;28;20201;-78
2022/04/26 07:23:12;;;;;;;10.40;8.73;;;18.00;89.10;;;;;;4996755;28;20297;-77
2022/04/26 07:25:38;;;;;;;9.43;8.03;;;18.30;88.80;;;;;;4996704;28;20892;-78
2022/04/26 07:28:04;;;;;;;9.77;8.33;;;18.20;86.40;;;;;;4996363;28;20506;-77
2022/04/26 07:30:36;;;;;;;8.60;7.80;;;18.80;85.50;;;;;;4996942;28;20460;-78
2022/04/26 07:35:46;;;;;;;10.10;8.67;;;18.20;87.40;;;;;;4997269;28;20415;-77
2022/04/26 07:38:12;;;;;;;8.50;7.37;;;18.00;88.50;;;;;;4994908;28;20824;-77
2022/04/26 07:40:37;;;;;;;10.20;9.17;;;18.40;90.90;;;;;;4985159;28;20210;-78
2022/04/26 07:43:04;;;;;;;9.77;6.80;;;19.10;84.00;;;;;;4977006;28;20371;-77
2022/04/26 07:45:31;;;;;;;7.00;6.33;;;19.00;85.30;;;;;;4959584;28;20178;-77
2022/04/26 07:47:58;;;;;;;7.17;6.40;;;18.60;85.60;;;;;;4976712;28;20429;-77
2022/04/26 07:50:24;;;;;;;7.00;6.33;;;;;;;;;;4977933;28;20413;-78
2022/04/26 07:52:50;;;;;;;6.20;5.57;;;;;;;;;;4959738;28;20501;-77
2022/04/26 07:55:15;;;;;;;6.30;5.70;;;19.00;84.90;;;;;;4977283;28;20638;-78
2022/04/26 07:57:41;;;;;;;5.90;5.10;;;18.80;84.50;;;;;;4976645;28;20285;-78
2022/04/26 08:00:07;;;;;;;6.30;5.70;;;18.50;83.20;;;;;;4977623;28;20590;-77
2022/04/26 08:02:32;;;;;;;6.43;5.10;;;17.30;85.70;;;;;;4977299;28;20289;-77
2022/04/26 08:05:01;;;;;;;6.27;5.60;;;15.80;89.60;;;;;;4982249;28;20186;-78
2022/04/26 08:07:28;;;;;;;12.23;6.57;;;15.70;93.10;;;;;;4975802;28;20242;-74
2022/04/26 08:09:54;;;;;;;6.37;5.73;;;;;;;;;;4976092;28;20413;-78
2022/04/26 08:12:20;;;;;;;6.17;5.57;;;15.80;91.70;;;;;;4983601;28;20429;-78
2022/04/26 08:14:45;;;;;;;6.10;5.50;;;15.90;90.40;;;;;;4989739;28;20526;-78
2022/04/26 08:17:11;;;;;;;8.83;7.07;;;15.30;95.00;;;;;;4995137;28;20181;-77
2022/04/26 08:19:37;;;;;;;6.10;5.50;;;14.80;95.10;;;;;;4994487;28;20228;-77
2022/04/26 08:22:03;;;;;;;5.83;4.57;;;13.90;96.00;;;;;;4994953;28;20916;-77
2022/04/26 08:27:30;;;;;;;7.27;4.83;;;14.30;96.30;;;;;;4995023;28;20272;-78
2022/04/26 08:29:58;;;;;;;4.07;3.67;;;15.80;93.10;;;;;;4995474;28;20405;-77
2022/04/26 08:32:26;;;;;;;4.60;3.23;;;16.40;88.70;;;;;;4995005;28;20433;-76
2022/04/26 08:34:53;;;;;;;5.83;3.87;;;16.30;89.20;;;;;;4977833;28;20421;-77
2022/04/26 08:37:18;;;;;;;5.20;4.40;;;16.90;87.50;;;;;;4995405;28;20456;-77
2022/04/26 08:39:44;;;;;;;6.60;4.03;;;17.10;89.50;;;;;;4994366;28;20417;-74
2022/04/26 08:42:09;;;;;;;6.30;4.10;;;16.70;88.60;;;;;;4994253;28;20201;-76
2022/04/26 08:44:35;;;;;;;4.43;4.03;;;17.60;85.80;;;;;;4994341;28;20256;-74
2022/04/26 08:52:49;;;;;;;5.00;3.83;;;15.00;91.80;;;;;;4994105;28;20480;-73
2022/04/26 08:55:14;;;;;;;4.40;4.00;;;15.50;92.40;;;;;;4994069;28;20423;-73
2022/04/26 08:57:40;;;;;;;9.20;4.03;;;17.20;87.10;;;;;;4993440;28;20460;-76
2022/04/26 09:00:11;;;;;;;4.87;3.50;;;17.20;87.00;;;;;;4994041;28;20654;-73
2022/04/26 09:02:37;;;;;;;4.57;3.50;;;17.20;86.70;;;;;;4993956;28;20563;-73
2022/04/26 09:05:11;;;;;;;5.10;3.13;;;16.60;88.60;;;;;;4993893;28;20431;-73
2022/04/26 09:07:37;;;;;;;3.90;3.00;;;17.10;85.80;;;;;;4993237;28;20429;-76
2022/04/26 09:10:13;;;;;;;4.80;2.53;;;16.70;86.20;;;;;;4994501;28;20801;-76
2022/04/26 09:13:07;;;;;;;4.00;2.77;;;16.00;87.80;;;;;;4993833;28;20416;-73
2022/04/26 09:15:44;;;;;;;3.80;3.00;;;15.70;89.00;;;;;;4993753;28;20435;-74
2022/04/26 09:18:20;;;;;;;3.13;2.40;;;14.90;88.00;;;;;;4993012;28;20448;-73
2022/04/26 09:20:48;;;;;;;3.37;2.80;;;14.60;93.00;;;;;;4976184;28;20849;-73
2022/04/26 09:23:34;;;;;;;3.20;2.70;;;14.30;93.20;;;;;;4993543;28;20413;-73
2022/04/26 09:26:10;;;;;;;2.90;2.43;;;14.20;92.00;;;;;;4992606;28;20432;-76
2022/04/26 09:28:38;;;;;;;2.60;2.40;;;14.20;92.40;;;;;;4975327;28;20451;-76
2022/04/26 09:31:18;;;;;;;2.50;1.93;;;13.90;93.10;;;;;;4993347;28;20794;-76
2022/04/26 09:33:47;;;;;;;4.17;2.03;;;13.90;91.90;;;;;;4993370;28;20412;-75
2022/04/26 09:36:14;;;;;;;3.67;2.27;;;14.20;92.80;;;;;;4993321;28;20765;-76
2022/04/26 09:38:47;;;;;;;4.43;2.30;;;14.30;90.10;;;;;;4992538;28;20483;-74
2022/04/26 09:41:13;;;;;;;2.30;2.10;;;14.30;91.90;;;;;;4993231;28;20444;-74
2022/04/26 09:43:38;;;;;;;3.00;2.60;;;14.60;89.10;;;;;;4993298;28;20417;-74
2022/04/26 09:46:04;;;;;;;3.40;2.17;;;14.50;89.00;;;;;;4993233;28;20208;-74
2022/04/26 09:48:33;;;;;;;2.00;1.80;;;14.60;87.80;;;;;;4992653;28;20540;-77
2022/04/26 09:50:59;;;;;;;4.73;3.27;;;14.60;90.10;;;;;;4993017;28;20602;-74
2022/04/26 09:53:25;;;;;;;5.80;4.10;;;15.30;88.10;;;;;;4993366;28;20425;-74
2022/04/26 09:55:54;;;;;;;1.80;1.60;;;;;;;;;;4992905;28;20181;-74
2022/04/26 09:58:22;;;;;;;4.40;2.10;;;16.60;82.80;;;;;;4974985;28;20911;-74
2022/04/26 10:00:49;;;;;;;3.47;2.40;;;16.00;86.60;;;;;;4992698;28;20445;-74
2022/04/26 10:03:20;;;;;;;5.30;2.87;;;16.40;86.60;;;;;;4992883;28;20417;-74
2022/04/26 10:05:54;;;;;;;2.00;1.80;;;16.80;82.20;;;;;;4992913;28;20948;-74
2022/04/26 10:08:21;;;;;;;2.43;1.40;;;17.30;79.40;;;;;;4992369;28;20745;-74
2022/04/26 10:10:47;;;;;;;1.93;1.73;;;17.20;80.50;;;;;;4992757;28;20444;-77
2022/04/26 10:13:31;;;;;;;2.63;1.90;;;17.10;77.00;;;;;;4993759;28;20416;-78
2022/04/26 10:16:01;;;;;;;6.47;1.30;;;16.80;78.60;;;;;;4995585;28;20500;-75
2022/04/26 10:18:32;;;;;;;1.80;1.60;;;16.40;80.00;;;;;;4992054;28;20452;-77
2022/04/26 10:20:58;;;;;;;2.47;1.47;;;15.70;79.40;;;;;;4992602;28;20478;-78
2022/04/26 10:23:24;;;;;;;1.90;1.40;;;16.00;81.80;;;;;;4992574;28;20409;-78
2022/04/26 10:26:11;;;;;;;3.67;2.13;;;16.30;83.80;;;;;;4993079;28;20408;-78
2022/04/26 10:29:00;;;;;;;2.40;2.00;;;16.30;83.10;;;;;;4992261;28;20181;-79
2022/04/26 10:31:57;;;;;;;3.53;2.10;;;17.20;78.40;;;;;;4993280;28;20437;-77
2022/04/26 10:34:29;;;;;;;3.43;2.40;;;17.20;83.40;;;;;;4993055;28;20401;-77
2022/04/26 10:37:08;;;;;;;4.17;2.77;;;17.20;82.00;;;;;;4995853;28;20408;-77
2022/04/26 10:39:40;;;;;;;5.93;2.40;;;16.60;85.50;;;;;;4996402;28;20416;-76
2022/04/26 10:42:11;;;;;;;3.90;2.80;;;16.20;83.70;;;;;;4997205;28;20431;-76
2022/04/26 10:44:45;;;;;;;4.77;3.00;;;16.20;87.00;;;;;;4997368;28;20405;-77
2022/04/26 10:47:19;;;;;;;2.97;2.00;;;16.60;81.10;;;;;;4997578;28;20401;-77
2022/04/26 10:49:47;;;;;;;2.67;2.47;;;17.40;82.10;;;;;;4997064;28;20400;-78
2022/04/26 10:52:17;;;;;;;2.33;2.17;;;17.80;79.00;;;;;;4980246;28;20484;-77
2022/04/26 10:54:46;;;;;;;3.80;2.50;;;17.00;84.60;;;;;;4997547;28;20771;-78
2022/04/26 10:57:20;;;;;;;3.97;2.77;;;17.70;80.20;;;;;;4979654;28;20417;-78
2022/04/26 10:59:47;;;;;;;4.10;2.20;;;17.00;80.50;;;;;;4979403;28;20464;-79
2022/04/26 11:02:18;;;;;;;2.30;2.10;;;16.70;80.10;;;;;;4996592;28;20536;-77
2022/04/26 11:04:44;;;;;;;3.53;2.03;;;17.40;80.20;;;;;;4979805;28;20428;-77
2022/04/26 11:07:13;;;;;;;5.60;2.90;;;17.20;80.40;;;;;;4997106;28;20449;-78
2022/04/26 11:09:55;;;;;;;2.97;2.43;;;16.80;76.50;;;;;;4996605;28;20412;-77
2022/04/26 11:12:22;;;;;;;7.63;2.63;;;17.20;81.20;;;;;;4996958;28;20464;-78
2022/04/26 11:14:50;;;;;;;4.07;2.27;;;16.80;78.40;;;;;;4979456;28;20519;-77
2022/04/26 11:17:18;;;;;;;3.03;2.70;;;16.00;78.20;;;;;;4996590;28;20439;-77
2022/04/26 11:19:51;;;;;;;2.20;2.03;;;;;;;;;;4995778;28;20420;-77
2022/04/26 11:22:18;;;;;;;3.40;2.00;;;15.60;80.50;;;;;;4996022;28;21253;-78
2022/04/26 11:30:25;;;;;;;2.37;2.17;;;;;;;;;;4996638;28;20440;-77
2022/04/26 11:32:54;;;;;;;2.40;2.20;;;17.90;74.30;;;;;;4979116;28;20951;-78
2022/04/26 11:35:20;;;;;;;2.07;1.87;;;18.10;77.20;;;;;;4996825;28;20413;-77
2022/04/26 11:38:01;;;;;;;3.33;2.60;;;18.00;80.60;;;;;;4995799;28;20467;-77
2022/04/26 11:40:29;;;;;;;4.30;2.93;;;17.80;84.90;;;;;;4979124;28;20434;-77
2022/04/26 11:42:58;;;;;;;3.77;2.50;;;;;;;;;;4979043;28;20773;-77
2022/04/26 11:45:28;;;;;;;4.37;2.83;;;16.10;85.90;;;;;;4996556;28;20498;-77
2022/04/26 11:47:55;;;;;;;6.43;2.70;;;15.90;86.70;;;;;;4994978;28;20424;-77
2022/04/26 11:50:26;;;;;;;2.43;2.23;;;15.30;86.80;;;;;;4996096;28;20420;-78
2022/04/26 11:52:56;;;;;;;3.33;2.27;;;15.60;86.30;;;;;;4978525;28;20436;-77
2022/04/26 11:55:24;;;;;;;5.10;2.30;;;15.60;87.90;;;;;;4996215;28;20428;-77
2022/04/26 11:57:50;;;;;;;6.10;3.37;;;;;;;;;;4995448;28;20856;-77
2022/04/26 12:00:18;;;;;;;6.00;2.70;;;14.80;92.80;;;;;;4995285;28;20413;-77
2022/04/26 12:02:47;;;;;;;3.80;3.00;;;14.80;92.00;;;;;;4995328;28;20444;-77
2022/04/26 12:05:14;;;;;;;2.73;2.50;;;15.10;92.20;;;;;;4995295;28;20417;-76
2022/04/26 12:07:41;;;;;;;6.10;2.77;;;;;;;;;;4994917;28;21119;-78
2022/04/26 12:10:26;;;;;;;3.37;2.70;;;15.00;93.70;;;;;;4995238;28;20404;-77
2022/04/26 12:12:56;;;;;;;2.93;2.70;;;14.90;91.00;;;;;;4995366;28;20413;-78
2022/04/26 12:15:30;;;;;;;5.60;3.23;;;14.80;90.20;;;;;;4995022;28;20917;-78
2022/04/26 12:18:07;;;;;;;4.87;2.53;;;14.70;90.20;;;;;;4994315;28;20462;-77
2022/04/26 12:20:55;;;;;;;3.20;2.60;;;14.60;90.00;;;;;;4994991;28;20428;-78
2022/04/26 12:23:22;;;;;;;6.67;2.60;;;14.70;89.10;;;;;;4994891;28;20409;-76
2022/04/26 12:25:55;;;;;;;2.90;2.50;;;14.80;90.00;;;;;;4994776;28;20409;-77
2022/04/26 12:28:20;;;;;;;3.80;2.63;;;14.70;90.10;;;;;;4994192;28;20412;-77
2022/04/26 12:30:46;;;;;;;3.33;2.70;;;14.70;90.30;;;;;;4994634;28;20971;-77
2022/04/26 12:33:23;;;;;;;4.83;2.97;;;14.90;88.60;;;;;;4977070;28;20235;-76
2022/04/26 12:36:04;;;;;;;6.00;2.40;;;14.70;85.10;;;;;;4994714;28;20174;-76
2022/04/26 12:38:30;;;;;;;3.80;2.80;;;14.80;86.80;;;;;;4988102;28;20555;-77
2022/04/26 12:41:05;;;;;;;3.70;2.70;;;;;;;;;;4994354;28;20975;-73
2022/04/26 12:43:33;;;;;;;3.10;2.23;;;15.00;88.10;;;;;;4977992;28;20178;-73
2022/04/26 12:46:03;;;;;;;3.17;2.60;;;15.40;87.50;;;;;;4974994;28;20850;-76
2022/04/26 12:51:25;;;;;;;3.70;3.10;;;15.60;87.60;;;;;;4994643;28;20464;-76
2022/04/26 12:53:52;;;;;;;2.73;2.43;;;15.80;86.00;;;;;;4994376;28;20756;-76
2022/04/26 12:56:18;;;;;;;3.80;2.90;;;;;;;;;;4976881;28;20479;-77
2022/04/26 12:58:45;;;;;;;2.67;2.40;;;;;;;;;;4976055;28;20491;-76
2022/04/26 13:01:12;;;;;;;4.07;2.60;;;16.10;84.00;;;;;;4994136;28;20943;-76
2022/04/26 13:03:38;;;;;;;9.10;3.50;;;;;;;;;;4994256;28;20413;-76
2022/04/26 13:06:07;;;;;;;3.13;2.83;;;16.90;82.60;;;;;;4993852;28;20504;-77
2022/04/26 13:08:33;;;;;;;3.80;2.70;;;17.10;81.10;;;;;;4993458;28;20425;-76
2022/04/26 13:10:59;;;;;;;3.40;3.10;;;17.10;79.60;;;;;;4993356;28;20449;-76
2022/04/26 13:13:27;;;;;;;4.13;3.00;;;17.20;80.40;;;;;;4993596;28;20412;-76
2022/04/26 13:15:53;;;;;;;2.90;2.57;;;16.90;84.30;;;;;;4981765;28;20430;-77
2022/04/26 13:18:19;;;;;;;3.07;2.50;;;;;;;;;;4976301;28;21145;-75
2022/04/26 13:20:45;;;;;;;4.77;3.47;;;;;;;;;;4977104;28;20198;-77
2022/04/26 13:23:12;;;;;;;4.70;3.20;;;16.30;86.30;;;;;;4973917;28;20427;-77
2022/04/26 13:25:38;;;;;;;4.53;3.13;;;15.90;84.30;;;;;;4995422;28;20417;-77
2022/04/26 13:28:04;;;;;;;5.83;3.40;;;15.50;85.70;;;;;;4993531;28;20411;-76
2022/04/26 13:30:30;;;;;;;3.60;3.30;;;15.20;86.10;;;;;;4975850;28;20182;-77
2022/04/26 13:32:55;;;;;;;3.90;2.70;;;14.80;86.60;;;;;;4975821;28;20479;-76
2022/04/26 13:35:22;;;;;;;5.53;2.97;;;;;;;;;;4993303;28;20180;-77
2022/04/26 13:37:48;;;;;;;3.03;2.63;;;;;;;;;;4992613;28;20284;-77
2022/04/26 13:40:14;;;;;;;4.63;2.50;;;;;;;;;;4993280;28;20743;-77
2022/04/26 13:42:39;;;;;;;4.03;3.07;;;14.00;88.10;;;;;;4993206;28;20411;-78
2022/04/26 13:45:06;;;;;;;3.30;2.77;;;;;;;;;;4975760;28;21072;-77
2022/04/26 13:47:33;;;;;;;2.83;2.50;;;14.20;89.90;;;;;;4992897;28;20177;-76
2022/04/26 13:49:59;;;;;;;2.53;2.33;;;13.90;89.70;;;;;;4993211;28;20831;-77
2022/04/26 13:52:24;;;;;;;3.30;2.70;;;13.80;89.10;;;;;;4993007;28;20445;-75
2022/04/26 13:54:50;;;;;;;3.23;2.60;;;;;;;;;;4993094;28;20188;-76
2022/04/26 13:57:16;;;;;;;3.17;2.63;;;13.90;89.50;;;;;;4992941;28;20177;-77
2022/04/26 13:59:43;;;;;;;2.53;2.33;;;13.90;89.40;;;;;;4992784;28;20416;-77
2022/04/26 14:02:09;;;;;;;4.70;3.07;;;13.80;89.30;;;;;;4992555;28;20447;-77
2022/04/26 14:04:34;;;;;;;3.37;2.90;;;13.90;91.10;;;;;;4977231;28;20414;-78
2022/04/26 14:07:00;;;;;;;3.43;2.70;;;;;;;;;;4973524;28;20895;-78
2022/04/26 14:09:27;;;;;;;2.97;2.53;;;;;;;;;;4977915;28;20693;-77
2022/04/26 14:11:56;;;;;;;3.93;2.63;;;13.80;91.40;;;;;;4992267;28;20432;-76
2022/04/26 14:22:35;;;;;;;3.07;2.20;;;13.20;93.50;;;;;;4992518;28;20478;-75
2022/04/26 14:25:05;;;;;;;3.10;2.07;;;13.20;93.80;;;;;;4992640;28;20405;-76
2022/04/26 14:27:32;;;;;;;3.83;2.47;;;13.30;94.60;;;;;;4975100;28;20201;-77
2022/04/26 14:29:58;;;;;;;2.40;2.13;;;;;;;;;;4975145;28;20408;-76
2022/04/26 14:32:24;;;;;;;5.73;2.50;;;;;;;;;;4972664;28;20447;-75
2022/04/26 14:34:50;;;;;;;2.80;1.90;;;;;;;;;;4989473;28;20421;-76
2022/04/26 14:37:16;;;;;;;2.17;1.90;;;12.90;96.10;;;;;;4971789;28;20406;-78
2022/04/26 14:39:42;;;;;;;3.07;2.77;;;12.80;96.30;;;;;;4955687;28;20480;-77
2022/04/26 14:42:09;;;;;;;2.20;1.83;;;12.90;96.30;;;;;;4973333;28;20437;-77
2022/04/26 14:44:35;;;;;;;3.50;2.20;;;12.90;96.30;;;;;;4973146;28;20410;-77
2022/04/26 14:47:06;;;;;;;2.53;2.33;;;;;;;;;;4989286;28;20782;-77
2022/04/26 14:49:33;;;;;;;3.33;2.70;;;13.00;96.30;;;;;;4976607;28;20417;-76
2022/04/26 14:51:59;;;;;;;2.97;2.77;;;13.00;96.30;;;;;;4976767;28;20460;-74
2022/04/26 14:54:24;;;;;;;3.10;2.70;;;13.10;96.00;;;;;;4972953;28;20910;-74
2022/04/26 14:56:50;;;;;;;6.50;2.73;;;;;;;;;;4972864;28;20643;-74
2022/04/26 14:59:17;;;;;;;4.90;3.27;;;13.30;96.30;;;;;;4972659;28;20209;-74
2022/04/26 15:01:46;;;;;;;3.40;3.10;;;13.30;96.30;;;;;;4972800;28;20846;-74
2022/04/26 15:04:12;;;;;;;3.83;2.90;;;13.30;96.30;;;;;;4955601;28;20422;-74
2022/04/26 15:06:37;;;;;;;3.40;2.80;;;13.40;96.30;;;;;;4955880;28;20448;-74
2022/04/26 15:11:48;;;;;;;9.33;3.10;;;;;;;;;;4984720;28;20220;-76
2022/04/26 15:16:57;;;;;;;5.30;4.60;;;13.40;96.30;;;;;;4972923;28;20936;-75
2022/04/26 15:19:24;;;;;;;4.37;3.00;;;13.50;96.30;;;;;;4972368;28;20461;-76
2022/04/26 15:21:49;;;;;;;3.07;2.77;;;13.50;96.30;;;;;;4975164;28;20216;-76
2022/04/26 15:24:15;;;;;;;3.20;2.87;;;13.20;96.30;;;;;;4980753;28;20851;-75
2022/04/26 15:26:41;;;;;;;3.17;2.87;;;;;;;;;;4993164;28;20244;-76
2022/04/26 15:29:07;;;;;;;3.60;3.30;;;;;;;;;;4994872;28;20284;-77
2022/04/26 15:31:35;;;;;;;4.70;3.00;;;13.10;96.30;;;;;;4990845;28;20239;-75
2022/04/26 15:34:02;;;;;;;3.70;2.63;;;;;;;;;;4983865;28;20468;-77
2022/04/26 15:36:28;;;;;;;2.93;2.70;;;;;;;;;;4986054;28;20428;-77
2022/04/26 15:38:58;;;;;;;4.53;3.13;;;;;;;;;;4966424;28;21240;-77
2022/04/26 15:41:24;;;;;;;5.30;3.10;;;;;;;;;;4985645;28;20193;-76
2022/04/26 15:43:50;;;;;;;3.70;3.40;;;13.30;96.30;;;;;;4982681;28;20447;-76
2022/04/26 15:46:16;;;;;;;3.90;3.50;;;13.20;96.30;;;;;;4965986;28;20422;-76
2022/04/26 15:48:47;;;;;;;4.00;3.30;;;;;;;;;;4986149;28;20413;-77
2022/04/26 15:51:16;;;;;;;4.03;3.63;;;12.80;96.30;;;;;;4982545;28;20202;-76
2022/04/26 15:53:45;;;;;;;4.07;3.20;;;12.90;96.30;;;;;;4988921;28;20515;-77
2022/04/26 15:56:11;;;;;;;3.40;3.07;;;;;;;;;;4984764;28;20421;-77
2022/04/26 15:58:37;;;;;;;5.77;2.80;;;12.80;96.30;;;;;;4990288;28;20927;-77
2022/04/26 16:01:03;;;;;;;3.43;3.03;;;;;;;;;;4986544;28;20221;-76
2022/04/26 16:03:29;;;;;;;3.67;3.30;;;;;;;;;;4980484;28;20596;-76
2022/04/26 16:05:54;;;;;;;3.60;3.13;;;;;;;;;;4986334;28;20512;-77
2022/04/26 16:08:20;;;;;;;6.37;3.10;;;;;;;;;;4987494;28;20268;-76
2022/04/26 17:04:56;;;;;;;4.53;2.70;;;12.10;96.30;;;;;;4156572;23;20492;-73
2022/04/26 17:07:22;;;;;;;2.40;2.20;;;12.00;96.30;;;;;;4975648;28;20917;-75
2022/04/26 17:09:47;;;;;;;4.07;3.03;;;12.00;96.30;;;;;;4966737;28;20220;-75
2022/04/26 17:12:14;;;;;;;5.30;3.10;;;12.00;96.30;;;;;;4976640;28;20445;-77
2022/04/26 17:14:41;;;;;;;3.20;2.90;;;12.10;96.30;;;;;;4975709;28;20174;-77
2022/04/26 17:17:08;;;;;;;2.83;2.63;;;;;;;;;;4974038;28;21121;-77
2022/04/26 17:19:33;;;;;;;4.00;2.93;;;12.00;96.30;;;;;;4969154;28;20476;-75
2022/04/26 17:22:01;;;;;;;4.30;3.40;;;;;;;;;;4973694;28;20456;-78
2022/04/26 17:27:11;;;;;;;5.30;3.43;;;11.90;96.30;;;;;;4971916;28;20952;-78
2022/04/26 17:29:37;;;;;;;5.33;3.43;;;11.90;96.30;;;;;;4955873;28;20437;-77
2022/04/26 17:32:03;;;;;;;4.80;2.90;;;11.80;96.30;;;;;;4974275;28;20448;-78
2022/04/26 17:34:29;;;;;;;4.03;3.30;;;11.70;96.30;;;;;;4956543;28;20425;-76
2022/04/26 17:36:54;;;;;;;4.93;3.67;;;11.80;96.30;;;;;;4973779;28;20583;-77
2022/04/26 17:39:23;;;;;;;5.13;3.27;;;11.70;96.30;;;;;;4973177;28;20233;-76
2022/04/26 17:41:49;;;;;;;4.60;3.03;;;11.70;96.30;;;;;;4973537;28;20194;-76
2022/04/26 17:44:16;;;;;;;4.50;3.20;;;11.60;96.30;;;;;;4973537;28;20413;-76
2022/04/26 17:46:42;;;;;;;3.40;3.10;;;11.60;96.30;;;;;;4972997;28;20442;-76
2022/04/26 17:49:08;;;;;;;4.17;2.83;;;11.40;96.30;;;;;;4973505;28;20492;-76
2022/04/26 17:51:33;;;;;;;4.30;3.00;;;11.30;96.30;;;;;;4953151;28;20501;-77
2022/04/26 17:56:43;;;;;;;4.23;3.70;;;11.30;96.30;;;;;;4954829;29;20218;-74
2022/04/26 17:59:09;;;;;;;6.57;3.60;;;11.40;96.30;;;;;;4953722;29;20462;-74
2022/04/26 18:01:35;;;;;;;5.90;3.70;;;11.30;96.30;;;;;;4954288;29;20493;-75
2022/04/26 18:04:04;;;;;;;3.80;3.40;;;11.20;96.30;;;;;;4954215;29;20179;-74
2022/04/26 18:06:30;;;;;;;5.20;3.47;;;11.10;96.30;;;;;;4954212;29;20229;-74
2022/04/26 18:08:55;;;;;;;6.50;4.13;;;11.10;96.30;;;;;;4953649;29;20845;-74
2022/04/26 18:11:21;;;;;;;3.77;3.30;;;11.10;96.30;;;;;;4954127;29;20190;-76
2022/04/26 18:13:49;;;;;;;3.07;2.80;;;11.00;96.30;;;;;;4954208;29;20179;-74
2022/04/26 18:16:15;;;;;;;5.90;3.77;;;10.90;96.30;;;;;;4971709;28;20678;-73
2022/04/26 18:18:40;;;;;;;6.00;3.30;;;10.90;96.30;;;;;;4969290;28;20488;-74
2022/04/26 18:21:06;;;;;;;7.50;3.20;;;10.90;96.30;;;;;;4972684;28;20202;-74
2022/04/26 18:23:32;;;;;;;10.30;3.10;;;10.80;96.30;;;;;;4973396;28;20249;-77
2022/04/26 18:26:14;;;;;;;3.70;2.97;;;10.90;96.30;;;;;;4955636;28;20202;-75
2022/04/26 18:28:44;;;;;;;4.23;3.63;;;10.80;96.30;;;;;;4954292;28;20646;-78
2022/04/26 18:31:11;;;;;;;4.47;3.00;;;10.70;96.30;;;;;;4972834;28;20524;-77
2022/04/26 18:33:38;;;;;;;4.17;3.43;;;10.60;96.30;;;;;;4978770;28;20430;-75
2022/04/26 18:36:06;;;;;;;4.70;3.93;;;10.40;96.30;;;;;;4972765;28;20422;-76
2022/04/26 18:38:32;;;;;;;7.40;3.87;;;10.40;96.30;;;;;;4972090;28;20450;-74
2022/04/26 18:40:58;;;;;;;35.43;20.93;;;10.50;96.30;;;;;;4972629;28;20484;-74
2022/04/26 18:43:23;;;;;;;13.70;8.90;;;10.50;96.30;;;;;;4973335;28;20166;-74